• Join FlightAware (Why Join?)
  • Login
  • US Flag 
11:46AM EST


 

Airport Tracker/Info


-or-


 

Live Flight TrackerFlight Track Log ✈ DAL3688 ✈ 19-Apr-2013 ✈ KMDT - KDTW

Flight Track Log - Related Links

Times and Time Zones

All times are in EDT time to prevent confusion due to time zone crossing. See the DAL3688 flight status page for this flight to view local times or setup timezone preferences in your user account.

Time Position Orientation Groundspeed Altitude Reporting Facility
EDT Latitude Longitude Course Direction KTS MPH feet Rate Location/Type
12:57PM 40.1158 -76.7589 247° West 226 260 5,000  Level New York Center
12:58PM 40.2953 -77.0525 294° West  Level FlightAware Approximate
12:58PM 40.1056 -76.8367 260° West 231 266 7,700  Level New York Center
12:59PM 40.2641 -77.1565 242° Southwest  Level FlightAware Approximate
12:59PM 40.0975 -76.9119 262° West 236 272 9,700  Level New York Center
01:00PM 40.2224 -77.2597 241° Southwest  Level FlightAware Approximate
01:00PM 40.0858 -77.0142 262° West 250 288 11,300  Level New York Center
01:01PM 40.1797 -77.3622 241° Southwest  Level FlightAware Approximate
01:01PM 40.0747 -77.1053 261° West 283 326 12,400  Level New York Center
01:02PM 40.1341 -77.4812 247° West  Level FlightAware Approximate
01:02PM 40.0600 -77.2261 261° West 309 356 14,100  Level New York Center
01:03PM 40.0478 -77.3308 261° West 316 364 15,500 1,440 Climbing New York Center
01:04PM 40.0325 -77.4569 261° West 321 369 17,100 1,440 Climbing New York Center
01:05PM 40.0264 -77.5647 266° West 331 381 18,500 1,380 Climbing New York Center
01:06PM 40.0269 -77.7225 270° West 326 375 20,100 1,260 Climbing Cleveland Center
01:07PM 40.0258 -77.8447 269° West 337 388 21,300 1,140 Climbing Cleveland Center
01:08PM 40.0247 -77.9694 269° West 343 395 22,400 900 Climbing Cleveland Center
01:09PM 40.0253 -78.0942 270° West 348 400 23,200 720 Climbing Cleveland Center
01:10PM 40.0239 -78.2189 269° West 348 400 23,900 540 Climbing Cleveland Center
01:11PM 40.0450 -78.3347 283° West 348 400 24,300 420 Climbing Cleveland Center
01:12PM 40.0808 -78.4611 290° West 358 412 24,800 480 Climbing Cleveland Center
01:13PM 40.1164 -78.5903 290° West 364 419 25,300 480 Climbing Cleveland Center
01:14PM 40.1519 -78.7225 289° West 375 432 25,800 540 Climbing Cleveland Center
01:15PM 40.1853 -78.8547 288° West 386 444 26,400 540 Climbing Cleveland Center
01:16PM 40.2250 -78.9897 291° West 386 444 26,900 480 Climbing Cleveland Center
01:17PM 40.2600 -79.1222 289° West 386 444 27,400 480 Climbing Cleveland Center
01:18PM 40.2931 -79.2547 288° West 386 444 27,900 240 Climbing Cleveland Center
01:19PM 40.3278 -79.3875 289° West 386 444 28,000 60 Climbing Cleveland Center
01:20PM 40.3644 -79.5203 290° West 386 444 28,100 300 Climbing Cleveland Center
01:21PM 40.3992 -79.6561 289° West 386 444 28,700 540 Climbing Cleveland Center
01:22PM 40.4333 -79.7894 289° West 386 444 29,200 480 Climbing Cleveland Center
01:23PM 40.4656 -79.9200 288° West 386 444 29,700 360 Climbing Cleveland Center
01:24PM 40.4994 -80.0481 289° West 381 438 30,000 120 Climbing Cleveland Center
01:25PM 40.5314 -80.1817 288° West 381 438 30,000  Level Cleveland Center
01:26PM 40.5650 -80.3181 288° West 387 445 30,000  Level Cleveland Center
01:27PM 40.6050 -80.4711 289° West 397 457 30,000  Level Cleveland Center
01:28PM 40.6508 -80.6078 294° West 404 465 30,000  Level Cleveland Center
01:29PM 40.7175 -80.7392 304° West 426 490 30,000 -600 Level Cleveland Center
01:30PM 40.7922 -80.8792 305° West 448 516 28,900 -1,020 Descending Cleveland Center
01:31PM 40.8606 -81.0169 303° West 458 527 28,000 -480 Descending Cleveland Center
01:32PM 40.9308 -81.1575 304° West 458 527 28,000  Level Cleveland Center
01:33PM 41.0008 -81.2983 303° West 458 527 28,000  Level Cleveland Center
01:34PM 41.0625 -81.4203 304° West 458 527 28,000  Level Cleveland Center
01:35PM 41.1303 -81.5561 304° West 453 521 28,000  Level Cleveland Center
01:36PM 41.1958 -81.6925 303° West 453 521 28,000 -600 Level Cleveland Center
01:37PM 41.2714 -81.8456 303° West 453 521 26,900 -1,080 Descending Cleveland Center
01:38PM 41.3364 -81.9769 303° West 447 514 25,900 -1,260 Descending Cleveland Center
01:39PM 41.4036 -82.1139 303° West 440 506 24,400 -1,800 Descending Cleveland Center
01:40PM 41.4664 -82.2403 304° West 434 499 22,400 -2,040 Descending Cleveland Center
01:41PM 41.5250 -82.3608 303° West 411 473 20,300 -1,920 Descending Cleveland Center
01:42PM 41.5756 -82.4650 303° West 386 444 18,600 -2,160 Descending Cleveland Center
01:43PM 41.5997 -82.5131 304° West 351 404 17,400 -2,400 Descending Cleveland Center
01:43PM 41.6278 -82.5750 301° West 363 418 16,200 -2,400 Descending Cleveland Center
01:44PM 41.6761 -82.6764 303° West 354 407 14,000 -2,160 Descending Cleveland Center
01:45PM 41.7364 -82.7925 305° West 357 411 12,100 -960 Descending Cleveland Center
01:46PM 41.8117 -82.8844 318° Northwest 360 414 12,000  Descending Cleveland Center
01:47PM 41.8911 -82.9792 318° Northwest 363 418 12,100  Climbing Cleveland Center
01:48PM 41.9664 -83.0686 319° Northwest 364 419 12,100 -60 Level Cleveland Center
01:49PM 42.0333 -83.1522 317° Northwest 361 415 12,000 -60 Descending Cleveland Center
01:50PM 42.0983 -83.2222 321° Northwest 311 358 12,000 -600 Level Cleveland Center
01:51PM 42.1736 -83.2225 360° North 259 298 10,900 -1,260 Descending Cleveland Center
01:52PM 42.2392 -83.1803 25° Northeast 249 287 9,500 -1,320 Descending Cleveland Center
01:54PM 42.3219 -83.1050 34° Northeast 276 318 8,100 -720 Descending Cleveland Center
01:55PM 42.3900 -83.0431 34° Northeast 275 316 8,000 -360 Descending Cleveland Center
01:56PM 42.4528 -83.0428 360° North 196 226 7,400 -1,140 Descending Cleveland Center
01:57PM 42.4681 -83.1025 289° West 165 190 5,800 -1,140 Descending Cleveland Center
01:58PM 42.4439 -83.1633 242° Southwest 161 185 5,000 -420 Descending Cleveland Center
01:59PM 42.4139 -83.1903 214° Southwest 166 191 5,000 -360 Level Cleveland Center
02:00PM 42.3758 -83.2225 212° Southwest 168 193 4,400 -780 Descending Cleveland Center
02:01PM 42.3333 -83.2544 209° Southwest 153 176 3,400 -900 Descending Cleveland Center